createdAt,value
2018-09-24T00:01:46.386Z,100990.34
2018-09-24T00:04:15.923Z,101002.25
2018-09-24T00:06:45.584Z,101011.24
2018-09-24T00:09:15.137Z,101008.26
2018-09-24T00:11:44.698Z,101017.86
2018-09-24T00:14:14.295Z,101016.06
2018-09-24T00:16:43.826Z,101023.67
2018-09-24T00:19:13.385Z,101034.58
2018-09-24T00:21:42.953Z,101042.20
2018-09-24T00:24:12.501Z,101045.69
2018-09-24T00:26:42.097Z,101051.34
2018-09-24T00:29:11.749Z,101053.48
2018-09-24T00:31:41.390Z,101058.09
2018-09-24T00:34:10.965Z,101053.36
2018-09-24T00:36:40.594Z,101062.12
2018-09-24T00:39:11.538Z,101069.38
2018-09-24T00:41:41.074Z,101071.84
2018-09-24T00:44:10.773Z,101078.19
2018-09-24T00:46:40.410Z,101085.13
2018-09-24T00:49:10.011Z,101082.48
2018-09-24T00:51:39.572Z,101083.30
2018-09-24T00:54:09.106Z,101094.34
2018-09-24T00:56:38.672Z,101104.11
2018-09-24T00:59:08.217Z,101110.08
2018-09-24T01:01:37.734Z,101114.38
2018-09-24T01:04:07.568Z,101113.88
2018-09-24T01:06:37.124Z,101122.01
2018-09-24T01:09:09.874Z,101118.03
2018-09-24T01:11:39.617Z,101124.83
2018-09-24T01:14:09.194Z,101128.98
2018-09-24T01:16:39.087Z,101131.63
2018-09-24T01:19:08.786Z,101139.23
2018-09-24T01:21:38.380Z,101145.36
2018-09-24T01:24:07.968Z,101141.71
2018-09-24T01:26:37.582Z,101139.39
2018-09-24T01:29:07.322Z,101144.20
2018-09-24T01:31:36.929Z,101147.34
2018-09-24T01:34:06.857Z,101152.45
2018-09-24T01:36:36.412Z,101147.52
2018-09-24T01:41:49.011Z,101171.66
2018-09-24T01:44:18.591Z,101165.72
2018-09-24T01:46:48.197Z,101178.94
2018-09-24T01:49:17.766Z,101178.61
2018-09-24T01:51:47.347Z,101186.54
2018-09-24T01:54:16.928Z,101182.55
2018-09-24T01:56:46.599Z,101204.41
2018-09-24T01:59:16.239Z,101196.94
2018-09-24T02:01:48.219Z,101197.44
2018-09-24T02:04:17.863Z,101211.02
2018-09-24T02:06:47.520Z,101203.55
2018-09-24T02:09:17.305Z,101215.45
2018-09-24T02:11:46.878Z,101221.75
2018-09-24T02:14:16.544Z,101224.52
2018-09-24T02:16:46.078Z,101223.37
2018-09-24T02:19:15.725Z,101227.36
2018-09-24T02:21:45.335Z,101235.12
2018-09-24T02:24:15.723Z,101234.63
2018-09-24T02:26:45.321Z,101243.94
2018-09-24T02:29:14.942Z,101247.73
2018-09-24T02:31:44.541Z,101249.37
2018-09-24T02:34:14.131Z,101247.39
2018-09-24T02:36:43.761Z,101255.32
2018-09-24T02:39:13.372Z,101263.59
2018-09-24T02:41:43.164Z,101269.08
2018-09-24T02:44:12.775Z,101279.25
2018-09-24T02:46:45.305Z,101281.89
2018-09-24T02:49:14.888Z,101283.55
2018-09-24T02:51:44.563Z,101278.41
2018-09-24T02:54:14.121Z,101292.78
2018-09-24T02:56:48.661Z,101290.55
2018-09-24T02:59:18.663Z,101298.88
2018-09-24T03:01:48.318Z,101303.55
2018-09-24T03:04:17.848Z,101304.73
2018-09-24T03:06:47.618Z,101310.85
2018-09-24T03:09:18.193Z,101335.61
2018-09-24T03:11:48.196Z,101334.31
2018-09-24T03:14:27.967Z,101340.81
2018-09-24T03:16:57.624Z,101341.02
2018-09-24T03:19:27.218Z,101342.66
2018-09-24T03:21:56.809Z,101350.59
2018-09-24T03:24:26.413Z,101345.98
2018-09-24T03:26:55.957Z,101341.69
2018-09-24T03:29:26.759Z,101349.77
2018-09-24T03:31:56.363Z,101353.52
2018-09-24T03:34:26.235Z,101346.60
2018-09-24T03:36:55.766Z,101352.18
2018-09-24T03:39:25.403Z,101359.77
2018-09-24T03:41:54.981Z,101355.16
2018-09-24T03:44:24.512Z,101354.45
2018-09-24T03:46:54.152Z,101358.61
2018-09-24T03:49:23.786Z,101359.62
2018-09-24T03:51:53.440Z,101365.58
2018-09-24T03:54:23.087Z,101369.68
2018-09-24T03:56:53.035Z,101373.80
2018-09-24T03:59:22.713Z,101369.92
2018-09-24T04:01:52.336Z,101381.36
2018-09-24T04:04:27.183Z,101384.71
2018-09-24T04:07:02.111Z,101382.39
2018-09-24T04:09:36.790Z,101386.78
2018-09-24T04:12:11.492Z,101391.19
2018-09-24T04:14:47.335Z,101389.75
2018-09-24T04:17:22.105Z,101393.88
2018-09-24T04:19:56.807Z,101396.83
2018-09-24T04:22:31.539Z,101401.28
2018-09-24T04:25:06.302Z,101399.17
2018-09-24T04:27:41.106Z,101399.50
2018-09-24T04:30:15.854Z,101405.12
2018-09-24T04:32:50.729Z,101406.34
2018-09-24T04:35:25.777Z,101414.55
2018-09-24T04:38:00.558Z,101414.23
2018-09-24T04:40:35.454Z,101418.56
2018-09-24T04:43:10.027Z,101426.84
2018-09-24T04:45:44.696Z,101421.89
2018-09-24T04:48:19.482Z,101422.24
2018-09-24T04:51:00.985Z,101419.87
2018-09-24T04:53:35.711Z,101434.86
2018-09-24T04:56:10.553Z,101439.08
2018-09-24T04:58:45.346Z,101436.76
2018-09-24T05:01:20.569Z,101445.14
2018-09-24T05:03:55.348Z,101443.73
2018-09-24T05:06:30.175Z,101458.19
2018-09-24T05:09:04.849Z,101456.86
2018-09-24T05:11:39.640Z,101474.87
2018-09-24T05:14:14.321Z,101471.81
2018-09-24T05:16:49.111Z,101477.63
2018-09-24T05:19:23.920Z,101468.91
2018-09-24T05:21:58.760Z,101474.27
2018-09-24T05:24:33.496Z,101479.92
2018-09-24T05:27:08.485Z,101482.62
2018-09-24T05:29:43.221Z,101487.25
2018-09-24T05:32:18.100Z,101487.13
2018-09-24T05:34:52.929Z,101493.80
2018-09-24T05:37:27.662Z,101496.30
2018-09-24T05:40:02.410Z,101500.64
2018-09-24T05:42:37.140Z,101500.54
2018-09-24T05:45:12.423Z,101508.97
2018-09-24T05:47:47.208Z,101512.08
2018-09-24T05:50:21.995Z,101518.64
2018-09-24T05:52:56.789Z,101522.14
2018-09-24T05:55:31.929Z,101520.75
2018-09-24T05:58:06.766Z,101529.70
2018-09-24T06:00:41.668Z,101531.31
2018-09-24T06:03:16.321Z,101537.55
2018-09-24T06:05:51.013Z,101540.05
2018-09-24T06:08:25.841Z,101552.63
2018-09-24T06:11:00.381Z,101543.89
2018-09-24T06:13:42.051Z,101543.92
2018-09-24T06:16:16.770Z,101559.04
2018-09-24T06:18:51.699Z,101559.77
2018-09-24T06:21:26.624Z,101559.73
2018-09-24T06:24:01.464Z,101559.45
2018-09-24T06:26:36.192Z,101564.09
2018-09-24T06:29:11.145Z,101578.14
2018-09-24T06:31:45.928Z,101574.75
2018-09-24T06:34:20.816Z,101565.84
2018-09-24T06:37:00.306Z,101580.92
2018-09-24T06:39:35.304Z,101595.65
2018-09-24T06:42:10.269Z,101583.69
2018-09-24T06:44:45.108Z,101589.46
2018-09-24T06:47:19.998Z,101596.70
2018-09-24T06:49:54.809Z,101598.30
2018-09-24T06:52:29.698Z,101594.34
2018-09-24T06:55:04.511Z,101592.70
2018-09-24T06:57:39.335Z,101601.69
2018-09-24T07:00:14.156Z,101605.61
2018-09-24T07:02:49.087Z,101610.38
2018-09-24T07:05:23.941Z,101611.99
2018-09-24T07:07:58.746Z,101616.95
2018-09-24T07:10:33.373Z,101615.95
2018-09-24T07:13:08.305Z,101626.55
2018-09-24T07:15:42.949Z,101629.09
2018-09-24T07:18:17.780Z,101640.55
2018-09-24T07:20:52.604Z,101637.95
2018-09-24T07:23:27.331Z,101639.69
2018-09-24T07:26:02.090Z,101643.47
2018-09-24T07:28:36.828Z,101639.28
2018-09-24T07:31:11.748Z,101660.09
2018-09-24T07:33:46.458Z,101661.59
2018-09-24T07:36:21.153Z,101667.06
2018-09-24T07:38:56.068Z,101666.73
2018-09-24T07:41:30.954Z,101674.55
2018-09-24T07:44:05.655Z,101682.67
2018-09-24T07:46:40.566Z,101694.61
2018-09-24T07:49:15.362Z,101689.14
2018-09-24T07:51:50.196Z,101693.28
2018-09-24T07:54:24.912Z,101690.95
2018-09-24T07:56:59.759Z,101698.45
2018-09-24T07:59:34.630Z,101702.41
2018-09-24T08:02:09.428Z,101707.23
2018-09-24T08:04:44.234Z,101705.21
2018-09-24T08:07:18.842Z,101700.40
2018-09-24T08:09:54.243Z,101704.20
2018-09-24T08:12:29.034Z,101709.16
2018-09-24T08:15:03.902Z,101712.67
2018-09-24T08:17:38.832Z,101717.92
2018-09-24T08:20:13.684Z,101720.75
2018-09-24T08:22:48.586Z,101725.13
2018-09-24T08:25:23.362Z,101727.56
2018-09-24T08:27:58.100Z,101742.09
2018-09-24T08:30:33.009Z,101733.88
2018-09-24T08:33:07.708Z,101739.72
2018-09-24T08:35:42.380Z,101743.91
2018-09-24T08:38:17.182Z,101744.72
2018-09-24T08:40:51.853Z,101746.28
2018-09-24T08:43:26.765Z,101749.22
2018-09-24T08:46:05.810Z,101756.07
2018-09-24T08:48:40.685Z,101761.80
2018-09-24T08:51:15.443Z,101765.64
2018-09-24T08:53:50.137Z,101764.97
2018-09-24T08:56:25.033Z,101772.56
2018-09-24T08:58:59.808Z,101768.31
2018-09-24T09:01:34.561Z,101773.02
2018-09-24T09:04:09.389Z,101768.92
2018-09-24T09:06:44.799Z,101768.80
2018-09-24T09:09:19.579Z,101771.48
2018-09-24T09:11:54.501Z,101778.54
2018-09-24T09:14:29.433Z,101773.62
2018-09-24T09:17:04.276Z,101774.47
2018-09-24T09:19:39.359Z,101774.95
2018-09-24T09:22:14.257Z,101775.70
2018-09-24T09:24:49.249Z,101772.29
2018-09-24T09:27:24.106Z,101774.88
2018-09-24T09:29:58.864Z,101779.05
2018-09-24T09:32:33.572Z,101769.78
2018-09-24T09:35:08.380Z,101780.41
2018-09-24T09:37:43.241Z,101782.98
2018-09-24T09:40:17.919Z,101781.61
2018-09-24T09:42:52.823Z,101791.91
2018-09-24T09:45:27.600Z,101787.42
2018-09-24T09:48:02.346Z,101782.82
2018-09-24T09:50:37.263Z,101794.16
2018-09-24T09:53:12.336Z,101793.19
2018-09-24T09:55:47.031Z,101797.48
2018-09-24T09:58:21.656Z,101805.95
2018-09-24T10:00:56.326Z,101804.00
2018-09-24T10:03:31.055Z,101794.30
2018-09-24T10:06:05.962Z,101798.33
2018-09-24T10:08:40.603Z,101801.98
2018-09-24T10:11:15.403Z,101797.88
2018-09-24T10:13:50.341Z,101795.55
2018-09-24T10:16:25.024Z,101787.57
2018-09-24T10:18:59.743Z,101796.66
2018-09-24T10:21:34.555Z,101789.92
2018-09-24T10:24:09.270Z,101803.74
2018-09-24T10:26:44.078Z,101800.53
2018-09-24T10:29:18.844Z,101791.69
2018-09-24T10:31:54.171Z,101796.30
2018-09-24T10:34:29.436Z,101792.90
2018-09-24T10:37:04.140Z,101784.14
2018-09-24T10:39:38.922Z,101782.91
2018-09-24T10:42:13.924Z,101790.39
2018-09-24T10:44:48.693Z,101800.63
2018-09-24T10:47:23.393Z,101807.61
2018-09-24T10:49:58.131Z,101803.86
2018-09-24T10:52:32.927Z,101812.46
2018-09-24T10:55:07.633Z,101810.23
2018-09-24T10:57:42.316Z,101803.36
2018-09-24T11:00:17.229Z,101807.87
2018-09-24T11:02:51.853Z,101812.75
2018-09-24T11:05:26.705Z,101814.35
2018-09-24T11:08:01.551Z,101810.48
2018-09-24T11:10:36.201Z,101807.05
2018-09-24T11:13:10.875Z,101805.41
2018-09-24T11:15:45.714Z,101800.88
2018-09-24T11:18:20.452Z,101803.75
2018-09-24T11:20:54.968Z,101801.32
2018-09-24T11:23:29.813Z,101807.20
2018-09-24T11:26:04.538Z,101804.12
2018-09-24T11:28:39.388Z,101797.95
2018-09-24T11:31:14.160Z,101801.38
2018-09-24T11:33:49.080Z,101798.47
2018-09-24T11:36:24.773Z,101785.93
2018-09-24T11:39:00.148Z,101795.84
2018-09-24T11:41:34.965Z,101791.92
2018-09-24T11:44:09.816Z,101792.92
2018-09-24T11:46:44.851Z,101791.22
2018-09-24T11:49:19.568Z,101792.61
2018-09-24T11:51:54.471Z,101802.22
2018-09-24T11:54:29.341Z,101820.39
2018-09-24T11:57:04.026Z,101819.70
2018-09-24T11:59:38.871Z,101821.50
2018-09-24T12:02:13.835Z,101821.58
2018-09-24T12:04:48.621Z,101818.62
2018-09-24T12:07:23.392Z,101817.58
2018-09-24T12:09:58.231Z,101804.84
2018-09-24T12:12:32.914Z,101798.72
2018-09-24T12:15:07.733Z,101806.08
2018-09-24T12:17:42.512Z,101810.75
2018-09-24T12:20:17.347Z,101820.42
2018-09-24T12:22:52.053Z,101842.06
2018-09-24T12:25:26.830Z,101862.70
2018-09-24T12:28:01.933Z,101859.92
2018-09-24T12:30:37.037Z,101852.80
2018-09-24T12:33:11.732Z,101859.11
2018-09-24T12:35:46.691Z,101850.09
2018-09-24T12:38:21.549Z,101850.74
2018-09-24T12:40:56.450Z,101843.41
2018-09-24T12:43:31.224Z,101839.80
2018-09-24T12:46:06.160Z,101837.75
2018-09-24T12:48:40.979Z,101844.23
2018-09-24T12:51:15.814Z,101854.87
2018-09-24T12:53:50.729Z,101865.43
2018-09-24T12:56:25.391Z,101868.64
2018-09-24T12:59:00.272Z,101860.95
2018-09-24T13:01:35.839Z,101863.58
2018-09-24T13:04:10.779Z,101863.47
2018-09-24T13:06:45.405Z,101862.92
2018-09-24T13:09:20.158Z,101860.77
2018-09-24T13:11:54.893Z,101853.30
2018-09-24T13:14:29.632Z,101852.70
2018-09-24T13:17:04.470Z,101849.02
2018-09-24T13:19:39.302Z,101844.78
2018-09-24T13:22:14.200Z,101844.08
2018-09-24T13:24:48.904Z,101839.95
2018-09-24T13:27:23.561Z,101840.96
2018-09-24T13:29:58.402Z,101834.14
2018-09-24T13:32:33.108Z,101830.89
2018-09-24T13:35:08.281Z,101847.17
2018-09-24T13:37:43.085Z,101828.88
2018-09-24T13:40:17.824Z,101831.72
2018-09-24T13:42:52.512Z,101830.95
2018-09-24T13:45:27.408Z,101838.86
2018-09-24T13:48:02.559Z,101838.28
2018-09-24T13:50:37.555Z,101846.45
2018-09-24T13:53:12.344Z,101842.74
2018-09-24T13:55:47.088Z,101847.76
2018-09-24T13:58:21.920Z,101859.91
2018-09-24T14:00:56.666Z,101871.31
2018-09-24T14:03:31.508Z,101886.45
2018-09-24T14:06:06.314Z,101876.03
2018-09-24T14:08:40.869Z,101880.78
2018-09-24T14:11:15.551Z,101877.69
2018-09-24T14:13:50.294Z,101877.59
2018-09-24T14:16:25.306Z,101889.31
2018-09-24T14:19:00.046Z,101890.85
2018-09-24T14:21:34.872Z,101888.81
2018-09-24T14:24:09.661Z,101889.61
2018-09-24T14:26:44.496Z,101876.70
2018-09-24T14:29:19.372Z,101871.69
2018-09-24T14:31:54.216Z,101866.09
2018-09-24T14:34:29.174Z,101862.64
2018-09-24T14:37:04.060Z,101868.49
2018-09-24T14:39:38.781Z,101875.56
2018-09-24T14:42:14.123Z,101870.05
2018-09-24T14:44:49.164Z,101866.34
2018-09-24T14:47:24.860Z,101870.89
2018-09-24T14:49:59.752Z,101872.86
2018-09-24T14:52:34.514Z,101877.72
2018-09-24T14:55:09.603Z,101877.92
2018-09-24T14:57:44.577Z,101881.30
2018-09-24T15:00:19.267Z,101885.70
2018-09-24T15:02:53.998Z,101879.30
2018-09-24T15:05:28.741Z,101887.97
2018-09-24T15:08:03.824Z,101887.97
2018-09-24T15:10:38.714Z,101880.97
2018-09-24T15:13:13.530Z,101867.71
2018-09-24T15:15:48.356Z,101873.79
2018-09-24T15:18:23.157Z,101878.34
2018-09-24T15:20:58.761Z,101880.69
2018-09-24T15:23:33.688Z,101879.52
2018-09-24T15:26:08.445Z,101885.52
2018-09-24T15:28:43.363Z,101887.77
2018-09-24T15:31:18.711Z,101895.76
2018-09-24T15:33:53.718Z,101885.34
2018-09-24T15:36:28.481Z,101886.45
2018-09-24T15:39:03.352Z,101894.32
2018-09-24T15:41:38.161Z,101893.03
2018-09-24T15:44:13.090Z,101888.41
2018-09-24T15:46:47.872Z,101883.84
2018-09-24T15:49:22.751Z,101881.98
2018-09-24T15:51:57.732Z,101881.33
2018-09-24T15:54:32.529Z,101882.06
2018-09-24T15:57:07.414Z,101888.41
2018-09-24T15:59:42.268Z,101883.06
2018-09-24T16:02:16.935Z,101891.31
2018-09-24T16:04:51.793Z,101898.53
2018-09-24T16:07:26.569Z,101895.86
2018-09-24T16:10:01.425Z,101897.98
2018-09-24T16:12:36.247Z,101927.58
2018-09-24T16:15:13.137Z,101938.58
2018-09-24T16:17:48.001Z,101964.31
2018-09-24T16:20:23.413Z,101969.83
2018-09-24T16:22:58.228Z,101975.66
2018-09-24T16:25:32.926Z,101986.71
2018-09-24T16:28:07.960Z,101981.17
2018-09-24T16:30:42.789Z,101963.84
2018-09-24T16:33:17.559Z,101966.80
2018-09-24T16:35:52.713Z,101970.14
2018-09-24T16:38:27.698Z,101972.95
2018-09-24T16:41:02.412Z,101977.10
2018-09-24T16:43:37.346Z,101985.22
2018-09-24T16:46:12.336Z,101980.59
2018-09-24T16:48:47.094Z,101991.33
2018-09-24T16:51:21.987Z,101995.84
2018-09-24T16:53:57.014Z,101996.31
2018-09-24T16:56:31.798Z,101999.50
2018-09-24T16:59:06.531Z,101999.52
2018-09-24T17:01:41.382Z,102005.50
2018-09-24T17:04:16.307Z,102008.76
2018-09-24T17:06:51.291Z,102016.64
2018-09-24T17:09:26.612Z,102018.47
2018-09-24T17:12:01.575Z,102012.19
2018-09-24T17:14:36.578Z,102032.40
2018-09-24T17:17:11.329Z,102017.77
2018-09-24T17:19:46.092Z,102008.47
2018-09-24T17:22:20.864Z,102006.45
2018-09-24T17:24:55.720Z,102014.09
2018-09-24T17:27:30.487Z,102019.66
2018-09-24T17:30:05.122Z,102014.16
2018-09-24T17:32:39.885Z,102011.64
2018-09-24T17:35:14.831Z,102024.31
2018-09-24T17:37:49.511Z,102027.93
2018-09-24T17:40:24.281Z,102030.75
2018-09-24T17:42:59.122Z,102036.25
2018-09-24T17:45:33.992Z,102032.28
2018-09-24T17:48:08.669Z,102038.22
2018-09-24T17:50:43.474Z,102033.86
2018-09-24T17:53:18.051Z,102053.40
2018-09-24T17:55:52.996Z,102057.00
2018-09-24T17:58:28.088Z,102055.72
2018-09-24T18:01:02.758Z,102061.31
2018-09-24T18:03:37.693Z,102065.62
2018-09-24T18:06:12.688Z,102065.38
2018-09-24T18:08:47.403Z,102072.42
2018-09-24T18:11:22.682Z,102073.29
2018-09-24T18:13:57.641Z,102078.14
2018-09-24T18:16:32.511Z,102087.76
2018-09-24T18:19:07.320Z,102090.62
2018-09-24T18:21:42.128Z,102091.94
2018-09-24T18:24:16.808Z,102102.58
2018-09-24T18:26:51.650Z,102106.69
2018-09-24T18:29:26.383Z,102107.63
2018-09-24T18:32:01.685Z,102107.86
2018-09-24T18:34:36.526Z,102114.04
2018-09-24T18:37:11.588Z,102114.33
2018-09-24T18:39:46.401Z,102112.88
2018-09-24T18:42:21.310Z,102113.69
2018-09-24T18:44:56.161Z,102117.62
2018-09-24T18:47:31.067Z,102115.81
2018-09-24T18:50:05.924Z,102119.89
2018-09-24T18:52:40.698Z,102120.45
2018-09-24T18:55:15.623Z,102128.33
2018-09-24T18:57:50.656Z,102128.11
2018-09-24T19:00:25.609Z,102133.58
2018-09-24T19:03:00.504Z,102131.35
2018-09-24T19:05:35.867Z,102134.86
2018-09-24T19:08:10.685Z,102125.52
2018-09-24T19:10:45.748Z,102134.16
2018-09-24T19:13:20.565Z,102138.78
2018-09-24T19:15:55.378Z,102142.28
2018-09-24T19:18:30.320Z,102142.36
2018-09-24T19:21:05.109Z,102133.43
2018-09-24T19:23:40.176Z,102142.09
2018-09-24T19:26:14.942Z,102134.25
2018-09-24T19:28:49.792Z,102135.46
2018-09-24T19:31:24.692Z,102146.45
2018-09-24T19:33:59.423Z,102146.64
2018-09-24T19:36:34.765Z,102139.39
2018-09-24T19:39:11.516Z,102148.67
2018-09-24T19:41:46.647Z,102154.20
2018-09-24T19:44:21.703Z,102155.25
2018-09-24T19:46:56.855Z,102153.09
2018-09-24T19:49:31.648Z,102162.21
2018-09-24T19:52:06.452Z,102157.72
2018-09-24T19:54:41.433Z,102154.25
2018-09-24T19:57:16.405Z,102160.55
2018-09-24T19:59:51.478Z,102163.09
2018-09-24T20:02:26.248Z,102157.28
2018-09-24T20:05:01.147Z,102163.02
2018-09-24T20:07:35.964Z,102169.33
2018-09-24T20:10:11.093Z,102171.47
2018-09-24T20:12:46.057Z,102177.11
2018-09-24T20:15:20.936Z,102177.59
2018-09-24T20:17:55.863Z,102173.13
2018-09-24T20:20:31.444Z,102178.17
2018-09-24T20:23:06.522Z,102184.41
2018-09-24T20:25:41.798Z,102179.05
2018-09-24T20:28:16.748Z,102179.21
2018-09-24T20:30:51.666Z,102188.05
2018-09-24T20:33:26.617Z,102188.43
2018-09-24T20:36:01.319Z,102195.11
2018-09-24T20:38:36.141Z,102190.41
2018-09-24T20:41:11.128Z,102194.50
2018-09-24T20:43:46.052Z,102198.97
2018-09-24T20:46:21.681Z,102203.74
2018-09-24T20:48:56.753Z,102202.94
2018-09-24T20:51:32.443Z,102214.44
2018-09-24T20:54:08.110Z,102220.01
2018-09-24T20:56:43.434Z,102216.69
2018-09-24T20:59:18.267Z,102226.87
2018-09-24T21:01:53.354Z,102234.73
2018-09-24T21:04:28.149Z,102232.58
2018-09-24T21:07:03.188Z,102241.69
2018-09-24T21:09:38.159Z,102243.78
2018-09-24T21:12:13.805Z,102242.09
2018-09-24T21:14:48.690Z,102254.94
2018-09-24T21:17:23.718Z,102250.69
2018-09-24T21:19:58.471Z,102256.41
2018-09-24T21:22:33.497Z,102259.34
2018-09-24T21:25:08.229Z,102262.33
2018-09-24T21:27:43.203Z,102269.44
2018-09-24T21:30:18.994Z,102275.05
2018-09-24T21:32:53.889Z,102274.67
2018-09-24T21:35:29.113Z,102278.38
2018-09-24T21:38:04.100Z,102280.27
2018-09-24T21:40:38.996Z,102284.28
2018-09-24T21:43:13.833Z,102285.98
2018-09-24T21:45:48.991Z,102287.23
2018-09-24T21:48:23.685Z,102287.64
2018-09-24T21:50:58.598Z,102284.73
2018-09-24T21:53:33.489Z,102285.59
2018-09-24T21:56:08.486Z,102284.15
2018-09-24T21:58:43.486Z,102288.24
2018-09-24T22:01:18.198Z,102282.20
2018-09-24T22:03:53.118Z,102288.91
2018-09-24T22:06:28.132Z,102284.08
2018-09-24T22:09:02.933Z,102291.05
2018-09-24T22:11:37.812Z,102291.28
2018-09-24T22:14:12.506Z,102286.59
2018-09-24T22:16:47.339Z,102290.28
2018-09-24T22:19:22.790Z,102296.84
2018-09-24T22:21:57.612Z,102298.14
2018-09-24T22:24:32.402Z,102294.10
2018-09-24T22:27:07.132Z,102298.14
2018-09-24T22:29:41.962Z,102299.98
2018-09-24T22:32:16.763Z,102303.53
2018-09-24T22:34:52.067Z,102301.37
2018-09-24T22:37:26.743Z,102304.44
2018-09-24T22:40:01.766Z,102306.75
2018-09-24T22:42:37.188Z,102302.37
2018-09-24T22:45:11.904Z,102309.25
2018-09-24T22:47:46.801Z,102309.60
2018-09-24T22:50:21.524Z,102316.30
2018-09-24T22:52:56.359Z,102318.88
2018-09-24T22:55:31.600Z,102320.34
2018-09-24T22:58:07.664Z,102321.67
2018-09-24T23:00:42.848Z,102318.34
2018-09-24T23:03:17.742Z,102321.59
2018-09-24T23:05:53.159Z,102317.63
2018-09-24T23:08:27.992Z,102313.05
2018-09-24T23:11:02.946Z,102319.77
2018-09-24T23:13:37.858Z,102328.77
2018-09-24T23:16:13.050Z,102328.54
2018-09-24T23:18:47.886Z,102330.58
2018-09-24T23:21:23.137Z,102332.73
2018-09-24T23:23:57.909Z,102334.89
2018-09-24T23:26:32.733Z,102340.19
2018-09-24T23:44:42.280Z,102346.77
2018-09-24T23:47:17.936Z,102350.45
2018-09-24T23:49:52.796Z,102353.93
2018-09-24T23:52:27.658Z,102354.83
2018-09-24T23:55:02.273Z,102346.89
2018-09-24T23:57:37.103Z,102353.89
